To NAV CANADA Home Page Login to a new session Search on AWWS site Feedback and Comments Disclaimer Vers la page française équivalente Tips FAQ What's new on the site To the Forecasts and Observations / NOTAM section To "File a Flight Plan" website Publications and other links Update of the User's profile FIC Telephone Numbers My Weather Data Folder Route Weather Data Regional Weather Data Local Weather Data To the Forecasts and Observations / NOTAM section
Request Generated 08/28/2016 at 13:58:45 UTC . Weather information available at that time is displayed.

METAR/TAF

WHITEHORSE/ERIK NIELSEN INTL/YT    

METAR CYXY 281300Z 31003KT 300V020 15SM BKN070 OVC190 08/05 A3004 RMK
AC6AC2 SLP192=
METAR CYXY 281200Z 27004KT 15SM SCT100 BKN190 08/04 A3004 RMK AC3AC3
SLP189=
METAR CYXY 281100Z 24004KT 15SM SCT075 SCT100 BKN190 09/04 A3003 RMK
AC3AC1AC3 SLP187=

TAF CYXY 281138Z 2812/2912 24005KT P6SM SCT050 BKN080 TEMPO 2812/2903
P6SM -SHRA BKN040
RMK NXT FCST BY 281800Z=
Your time UTC time
Weather data provided by Environment Canada and NAV CANADA